createdAt,value
2023-03-21T00:00:13.984Z,0
2023-03-21T00:01:15.310Z,0
2023-03-21T00:02:15.532Z,0
2023-03-21T00:03:15.207Z,0
2023-03-21T00:04:16.285Z,0
2023-03-21T00:05:32.099Z,0
2023-03-21T00:06:17.047Z,0
2023-03-21T00:07:18.028Z,0
2023-03-21T00:08:19.104Z,0
2023-03-21T00:09:18.904Z,0
2023-03-21T00:10:54.777Z,0
2023-03-21T00:11:20.038Z,0
2023-03-21T00:12:20.530Z,0
2023-03-21T00:13:20.165Z,0
2023-03-21T00:14:21.512Z,0
2023-03-21T00:15:30.533Z,0
2023-03-21T00:16:46.874Z,0
2023-03-21T00:17:23.425Z,0
2023-03-21T00:18:22.833Z,0
2023-03-21T00:19:24.092Z,0
2023-03-21T00:20:24.743Z,0
2023-03-21T00:22:19.216Z,0
2023-03-21T00:22:36.433Z,0
2023-03-21T00:23:36.359Z,0
2023-03-21T00:24:37.290Z,0
2023-03-21T00:25:38.875Z,0
2023-03-21T00:26:39.012Z,0
2023-03-21T00:28:19.517Z,0
2023-03-21T00:29:07.858Z,0
2023-03-21T00:30:08.110Z,0
2023-03-21T00:31:09.328Z,0
2023-03-21T00:32:09.731Z,0
2023-03-21T00:33:32.901Z,0
2023-03-21T00:36:14.617Z,0
2023-03-21T00:36:31.785Z,0
2023-03-21T00:37:32.058Z,0
2023-03-21T00:38:32.999Z,0
2023-03-21T00:39:34.022Z,0
2023-03-21T00:41:04.542Z,0
2023-03-21T00:41:55.511Z,0
2023-03-21T00:42:35.737Z,0
2023-03-21T00:43:35.690Z,0
2023-03-21T00:44:36.635Z,0
2023-03-21T00:45:36.735Z,0
2023-03-21T00:47:12.328Z,0
2023-03-21T00:47:38.285Z,0
2023-03-21T00:48:39.267Z,0
2023-03-21T00:49:38.836Z,0
2023-03-21T00:50:40.092Z,0
2023-03-21T00:51:40.288Z,0
2023-03-21T00:52:56.855Z,0
2023-03-21T00:53:41.520Z,0
2023-03-21T00:54:42.725Z,0
2023-03-21T00:55:43.322Z,0
2023-03-21T00:56:43.719Z,0
2023-03-21T00:58:08.148Z,0
2023-03-21T00:58:44.655Z,0
2023-03-21T00:59:44.691Z,0
2023-03-21T01:00:45.721Z,0
2023-03-21T01:01:46.376Z,0
2023-03-21T01:02:51.820Z,0
2023-03-21T01:03:48.448Z,0
2023-03-21T01:04:48.102Z,0
2023-03-21T01:05:49.618Z,0
2023-03-21T01:06:49.580Z,0
2023-03-21T01:07:49.945Z,0
2023-03-21T01:09:05.234Z,0
2023-03-21T01:09:53.309Z,0
2023-03-21T01:10:53.499Z,0
2023-03-21T01:11:53.202Z,0
2023-03-21T01:12:54.693Z,0
2023-03-21T01:14:32.367Z,0
2023-03-21T01:14:55.595Z,0
2023-03-21T01:15:55.964Z,0
2023-03-21T01:16:56.477Z,0
2023-03-21T01:17:56.769Z,0
2023-03-21T01:18:57.295Z,0
2023-03-21T01:20:09.143Z,0
2023-03-21T01:21:08.774Z,0
2023-03-21T01:22:09.699Z,0
2023-03-21T01:23:10.658Z,0
2023-03-21T01:24:11.562Z,0
2023-03-21T01:25:34.019Z,0
2023-03-21T01:26:12.981Z,0
2023-03-21T01:27:13.972Z,0
2023-03-21T01:28:13.875Z,0
2023-03-21T01:29:15.354Z,0
2023-03-21T01:30:41.565Z,0
2023-03-21T01:31:15.704Z,0
2023-03-21T01:32:16.915Z,0
2023-03-21T01:33:18.067Z,0
2023-03-21T01:34:18.017Z,0
2023-03-21T01:35:19.256Z,0
2023-03-21T01:36:35.441Z,0
2023-03-21T01:37:21.030Z,0
2023-03-21T01:38:20.706Z,0
2023-03-21T01:39:21.378Z,0
2023-03-21T01:40:22.980Z,0
2023-03-21T01:41:52.986Z,0
2023-03-21T01:42:23.355Z,0
2023-03-21T01:43:24.586Z,0
2023-03-21T01:44:24.541Z,0
2023-03-21T01:45:25.834Z,0
2023-03-21T01:46:26.234Z,0
2023-03-21T01:47:28.900Z,0
2023-03-21T01:48:27.501Z,0
2023-03-21T01:49:27.731Z,0
2023-03-21T01:50:28.388Z,0
2023-03-21T01:51:28.589Z,0
2023-03-21T01:52:49.600Z,0
2023-03-21T01:53:28.954Z,0
2023-03-21T01:54:30.398Z,0
2023-03-21T01:55:30.646Z,0
2023-03-21T01:56:30.299Z,0
2023-03-21T01:57:43.672Z,0
2023-03-21T01:58:31.271Z,0
2023-03-21T01:59:32.176Z,0
2023-03-21T02:00:32.926Z,0
2023-03-21T02:01:33.990Z,0
2023-03-21T02:02:34.495Z,0
2023-03-21T02:03:50.733Z,0
2023-03-21T02:04:35.399Z,0
2023-03-21T02:05:35.486Z,0
2023-03-21T02:06:36.119Z,0
2023-03-21T02:07:36.050Z,0
2023-03-21T02:08:51.014Z,0
2023-03-21T02:09:36.955Z,0
2023-03-21T02:10:36.834Z,0
2023-03-21T02:11:38.055Z,0
2023-03-21T02:12:37.989Z,0
2023-03-21T02:13:39.221Z,0
2023-03-21T02:14:45.877Z,0
2023-03-21T02:15:40.651Z,0
2023-03-21T02:16:41.140Z,0
2023-03-21T02:17:41.383Z,0
2023-03-21T02:18:41.634Z,0
2023-03-21T02:20:04.757Z,0
2023-03-21T02:20:52.778Z,0
2023-03-21T02:21:53.984Z,0
2023-03-21T02:22:54.184Z,0
2023-03-21T02:23:53.823Z,0
2023-03-21T02:25:21.984Z,0
2023-03-21T02:25:55.722Z,0
2023-03-21T02:27:14.905Z,0
2023-03-21T02:27:56.123Z,0
2023-03-21T02:28:56.317Z,0
2023-03-21T02:29:57.247Z,0
2023-03-21T02:31:09.793Z,0
2023-03-21T02:32:03.258Z,0
2023-03-21T02:32:58.333Z,0
2023-03-21T02:33:58.282Z,0
2023-03-21T02:35:00.760Z,0
2023-03-21T02:36:24.820Z,0
2023-03-21T02:37:01.265Z,0
2023-03-21T02:38:11.818Z,0
2023-03-21T02:39:01.816Z,0
2023-03-21T02:40:02.039Z,0
2023-03-21T02:41:05.312Z,0
2023-03-21T02:42:02.772Z,0
2023-03-21T02:43:24.008Z,0
2023-03-21T02:44:04.249Z,0
2023-03-21T02:45:04.435Z,0
2023-03-21T02:46:04.871Z,0
2023-03-21T02:47:17.908Z,0
2023-03-21T02:48:06.305Z,0
2023-03-21T02:49:08.354Z,0
2023-03-21T02:50:06.618Z,0
2023-03-21T02:51:07.903Z,0
2023-03-21T02:52:41.027Z,0
2023-03-21T02:53:07.666Z,0
2023-03-21T02:54:59.246Z,0
2023-03-21T02:55:16.243Z,0
2023-03-21T02:56:15.890Z,0
2023-03-21T02:57:16.791Z,0
2023-03-21T02:58:29.619Z,0
2023-03-21T02:59:18.811Z,0
2023-03-21T03:00:31.601Z,0
2023-03-21T03:01:20.111Z,0
2023-03-21T03:02:20.336Z,0
2023-03-21T03:03:45.831Z,0
2023-03-21T03:04:21.113Z,0
2023-03-21T03:05:34.388Z,0
2023-03-21T03:06:22.328Z,0
2023-03-21T03:07:23.550Z,0
2023-03-21T03:08:41.152Z,0
2023-03-21T03:09:25.450Z,0
2023-03-21T03:10:25.078Z,0
2023-03-21T03:11:26.440Z,0
2023-03-21T03:12:27.691Z,0
2023-03-21T03:13:27.616Z,0
2023-03-21T03:15:14.310Z,0
2023-03-21T03:15:31.286Z,0
2023-03-21T03:16:31.528Z,0
2023-03-21T03:17:33.497Z,0
2023-03-21T03:18:32.813Z,0
2023-03-21T03:19:39.157Z,0
2023-03-21T03:20:34.491Z,0
2023-03-21T03:21:35.661Z,0
2023-03-21T03:22:36.632Z,0
2023-03-21T03:23:37.629Z,0
2023-03-21T03:24:37.848Z,0
2023-03-21T03:25:54.593Z,0
2023-03-21T03:26:38.817Z,0
2023-03-21T03:27:39.731Z,0
2023-03-21T03:28:40.212Z,0
2023-03-21T03:29:40.600Z,0
2023-03-21T03:31:17.977Z,0
2023-03-21T03:32:07.324Z,0
2023-03-21T03:33:07.143Z,0
2023-03-21T03:34:07.767Z,0
2023-03-21T03:35:09.274Z,0
2023-03-21T03:36:41.457Z,0
2023-03-21T03:37:10.099Z,0
2023-03-21T03:38:10.056Z,0
2023-03-21T03:39:10.351Z,0
2023-03-21T03:40:10.863Z,0
2023-03-21T03:41:11.556Z,0
2023-03-21T03:42:45.554Z,0
2023-03-21T03:43:39.795Z,0
2023-03-21T03:44:39.999Z,0
2023-03-21T03:45:40.928Z,0
2023-03-21T03:46:42.381Z,0
2023-03-21T03:48:08.450Z,0
2023-03-21T03:48:43.808Z,0
2023-03-21T03:49:43.575Z,0
2023-03-21T03:50:44.788Z,0
2023-03-21T03:51:44.131Z,0
2023-03-21T03:53:02.914Z,0
2023-03-21T03:53:46.337Z,0
2023-03-21T03:54:46.593Z,0
2023-03-21T03:55:46.787Z,0
2023-03-21T03:56:46.424Z,0
2023-03-21T03:57:47.632Z,0
2023-03-21T03:59:00.622Z,0
2023-03-21T03:59:49.288Z,0
2023-03-21T04:00:50.340Z,0
2023-03-21T04:01:50.617Z,0
2023-03-21T04:02:51.309Z,0
2023-03-21T04:04:23.999Z,0
2023-03-21T04:04:52.913Z,0
2023-03-21T04:05:53.160Z,0
2023-03-21T04:06:53.398Z,0
2023-03-21T04:07:53.635Z,0
2023-03-21T04:08:54.577Z,0
2023-03-21T04:10:01.215Z,0
2023-03-21T04:10:56.433Z,0
2023-03-21T04:11:57.392Z,0
2023-03-21T04:12:58.438Z,0
2023-03-21T04:13:59.645Z,0
2023-03-21T04:15:16.725Z,0
2023-03-21T04:16:00.555Z,0
2023-03-21T04:17:01.577Z,0
2023-03-21T04:18:01.835Z,0
2023-03-21T04:19:02.747Z,0
2023-03-21T04:20:37.357Z,0
2023-03-21T04:21:04.232Z,0
2023-03-21T04:22:04.171Z,0
2023-03-21T04:23:04.904Z,0
2023-03-21T04:24:04.866Z,0
2023-03-21T04:25:06.405Z,0
2023-03-21T04:26:12.813Z,0
2023-03-21T04:27:06.746Z,0
2023-03-21T04:28:08.260Z,0
2023-03-21T04:29:08.761Z,0
2023-03-21T04:30:08.680Z,0
2023-03-21T04:31:37.072Z,0
2023-03-21T04:32:10.392Z,0
2023-03-21T04:33:10.737Z,0
2023-03-21T04:34:10.958Z,0
2023-03-21T04:35:11.451Z,0
2023-03-21T04:36:12.241Z,0
2023-03-21T04:37:12.170Z,0
2023-03-21T04:38:13.421Z,0
2023-03-21T04:39:13.364Z,0
2023-03-21T04:40:14.805Z,0
2023-03-21T04:41:15.394Z,0
2023-03-21T04:42:15.653Z,0
2023-03-21T04:43:15.373Z,0
2023-03-21T04:44:16.896Z,0
2023-03-21T04:45:16.673Z,0
2023-03-21T04:46:17.971Z,0
2023-03-21T04:47:19.196Z,0
2023-03-21T04:48:19.548Z,0
2023-03-21T04:49:19.943Z,0
2023-03-21T04:50:20.153Z,0
2023-03-21T04:51:20.531Z,0
2023-03-21T04:52:20.733Z,0
2023-03-21T04:53:20.835Z,0
2023-03-21T04:54:21.812Z,0
2023-03-21T04:55:23.360Z,0
2023-03-21T04:56:23.569Z,0
2023-03-21T04:57:23.236Z,0
2023-03-21T04:58:23.633Z,0
2023-03-21T04:59:24.551Z,0
2023-03-21T05:00:25.788Z,0
2023-03-21T05:01:26.282Z,0
2023-03-21T05:02:25.937Z,0
2023-03-21T05:03:27.209Z,0
2023-03-21T05:04:27.626Z,0
2023-03-21T05:05:27.356Z,0
2023-03-21T05:06:28.325Z,0
2023-03-21T05:07:28.845Z,0
2023-03-21T05:08:28.788Z,0
2023-03-21T05:09:29.029Z,0
2023-03-21T05:10:29.293Z,0
2023-03-21T05:11:29.225Z,0
2023-03-21T05:12:30.712Z,0
2023-03-21T05:13:30.753Z,0
2023-03-21T05:14:31.396Z,0
2023-03-21T05:15:32.630Z,0
2023-03-21T05:16:33.741Z,0
2023-03-21T05:17:34.058Z,0
2023-03-21T05:18:34.427Z,0
2023-03-21T05:19:36.066Z,0
2023-03-21T05:20:36.169Z,0
2023-03-21T05:21:37.395Z,0
2023-03-21T05:22:37.587Z,0
2023-03-21T05:23:38.612Z,0
2023-03-21T05:24:38.844Z,0
2023-03-21T05:25:39.614Z,0
2023-03-21T05:26:40.040Z,5.63
2023-03-21T05:27:40.522Z,5.63
2023-03-21T05:28:41.024Z,5.63
2023-03-21T05:29:41.250Z,5.63
2023-03-21T05:30:41.570Z,5.63
2023-03-21T05:31:41.322Z,5.63
2023-03-21T05:32:42.665Z,5.63
2023-03-21T05:33:42.715Z,5.63
2023-03-21T05:34:43.181Z,5.63
2023-03-21T05:35:44.701Z,5.63
2023-03-21T05:36:44.745Z,5.63
2023-03-21T05:37:45.084Z,5.63
2023-03-21T05:38:46.008Z,5.63
2023-03-21T05:39:47.285Z,5.63
2023-03-21T05:40:47.518Z,5.63
2023-03-21T05:41:47.749Z,5.63
2023-03-21T05:42:48.971Z,11.25
2023-03-21T05:43:48.958Z,11.25
2023-03-21T05:44:49.880Z,11.25
2023-03-21T05:45:50.917Z,11.25
2023-03-21T05:46:50.130Z,11.25
2023-03-21T05:47:51.070Z,11.25
2023-03-21T05:48:51.745Z,11.25
2023-03-21T05:49:52.427Z,11.25
2023-03-21T05:50:53.634Z,11.25
2023-03-21T05:51:54.300Z,11.25
2023-03-21T05:52:55.223Z,11.25
2023-03-21T05:53:55.837Z,11.25
2023-03-21T05:54:55.772Z,11.25
2023-03-21T05:55:57.561Z,11.25
2023-03-21T05:56:57.291Z,16.88
2023-03-21T05:57:58.263Z,16.88
2023-03-21T05:58:59.194Z,16.88
2023-03-21T06:00:00.392Z,16.88
2023-03-21T06:01:00.895Z,16.88
2023-03-21T06:02:01.400Z,16.88
2023-03-21T06:03:01.636Z,16.88
2023-03-21T06:04:02.861Z,16.88
2023-03-21T06:05:03.076Z,16.88
2023-03-21T06:06:03.324Z,16.88
2023-03-21T06:07:03.614Z,16.88
2023-03-21T06:08:03.851Z,16.88
2023-03-21T06:09:04.389Z,22.5
2023-03-21T06:10:04.889Z,22.5
2023-03-21T06:11:05.146Z,22.5
2023-03-21T06:12:05.344Z,22.5
2023-03-21T06:13:05.844Z,22.5
2023-03-21T06:14:05.872Z,22.5
2023-03-21T06:15:07.424Z,22.5
2023-03-21T06:16:07.503Z,22.5
2023-03-21T06:17:08.732Z,22.5
2023-03-21T06:18:08.965Z,22.5
2023-03-21T06:19:09.945Z,28.13
2023-03-21T06:20:10.914Z,28.13
2023-03-21T06:21:10.573Z,28.13
2023-03-21T06:22:11.821Z,28.13
2023-03-21T06:23:11.757Z,28.13
2023-03-21T06:24:12.883Z,28.13
2023-03-21T06:25:13.855Z,22.5
2023-03-21T06:26:14.128Z,22.5
2023-03-21T06:27:14.981Z,22.5
2023-03-21T06:28:15.202Z,22.5
2023-03-21T06:29:15.710Z,22.5
2023-03-21T06:30:15.932Z,22.5
2023-03-21T06:31:15.309Z,22.5
2023-03-21T06:32:16.798Z,28.13
2023-03-21T06:33:16.446Z,28.13
2023-03-21T06:34:17.864Z,28.13
2023-03-21T06:35:17.838Z,28.13
2023-03-21T06:36:19.180Z,33.75
2023-03-21T06:37:19.886Z,33.75
2023-03-21T06:38:20.755Z,33.75
2023-03-21T06:39:21.720Z,33.75
2023-03-21T06:40:22.283Z,39.38
2023-03-21T06:41:22.841Z,39.38
2023-03-21T06:42:23.059Z,39.38
2023-03-21T06:43:24.006Z,39.38
2023-03-21T06:44:24.782Z,39.38
2023-03-21T06:45:25.732Z,39.38
2023-03-21T06:46:25.803Z,39.38
2023-03-21T06:47:27.046Z,39.38
2023-03-21T06:48:27.147Z,39.38
2023-03-21T06:49:27.436Z,39.38
2023-03-21T06:50:27.652Z,39.38
2023-03-21T06:51:27.570Z,39.38
2023-03-21T06:52:29.087Z,45
2023-03-21T06:53:29.012Z,45
2023-03-21T06:54:30.182Z,45
2023-03-21T06:55:31.431Z,45
2023-03-21T06:56:32.140Z,50.63
2023-03-21T06:57:33.361Z,50.63
2023-03-21T06:58:33.660Z,50.63
2023-03-21T06:59:33.634Z,50.63
2023-03-21T07:00:34.990Z,56.25
2023-03-21T07:01:36.268Z,56.25
2023-03-21T07:02:36.409Z,56.25
2023-03-21T07:03:37.365Z,50.63
2023-03-21T07:04:38.279Z,50.63
2023-03-21T07:05:39.232Z,50.63
2023-03-21T07:06:39.019Z,50.63
2023-03-21T07:07:39.991Z,45
2023-03-21T07:08:40.637Z,45
2023-03-21T07:09:41.584Z,45
2023-03-21T07:10:44.321Z,50.63
2023-03-21T07:11:43.626Z,50.63
2023-03-21T07:12:44.563Z,50.63
2023-03-21T07:13:45.490Z,50.63
2023-03-21T07:14:46.827Z,50.63
2023-03-21T07:15:46.912Z,50.63
2023-03-21T07:16:47.519Z,50.63
2023-03-21T07:17:49.037Z,50.63
2023-03-21T07:18:49.539Z,50.63
2023-03-21T07:19:50.464Z,50.63
2023-03-21T07:20:49.815Z,50.63
2023-03-21T07:21:50.760Z,50.63
2023-03-21T07:22:51.011Z,50.63
2023-03-21T07:23:51.659Z,50.63
2023-03-21T07:25:04.578Z,50.63
2023-03-21T07:25:53.705Z,56.25
2023-03-21T07:26:54.269Z,56.25
2023-03-21T07:27:57.054Z,56.25
2023-03-21T07:28:54.998Z,56.25
2023-03-21T07:29:55.663Z,56.25
2023-03-21T07:30:56.617Z,56.25
2023-03-21T07:31:57.847Z,56.25
2023-03-21T07:32:59.140Z,56.25
2023-03-21T07:33:58.804Z,56.25
2023-03-21T07:35:01.665Z,61.88
2023-03-21T07:36:00.883Z,61.88
2023-03-21T07:37:01.822Z,61.88
2023-03-21T07:38:02.862Z,61.88
2023-03-21T07:39:03.489Z,61.88
2023-03-21T07:40:04.009Z,67.5
2023-03-21T07:41:04.267Z,67.5
2023-03-21T07:42:04.812Z,67.5
2023-03-21T07:43:05.129Z,73.13
2023-03-21T07:45:06.462Z,73.13
2023-03-21T07:46:06.604Z,73.13
2023-03-21T07:47:07.589Z,73.13
2023-03-21T07:48:08.088Z,73.13
2023-03-21T07:49:08.058Z,73.13
2023-03-21T07:50:08.567Z,78.75
2023-03-21T07:51:07.966Z,78.75
2023-03-21T07:52:10.155Z,78.75
2023-03-21T07:53:09.370Z,78.75
2023-03-21T07:54:09.672Z,78.75
2023-03-21T07:55:10.051Z,78.75
2023-03-21T07:56:10.021Z,78.75
2023-03-21T07:57:13.179Z,78.75
2023-03-21T07:58:10.817Z,84.38
2023-03-21T07:59:11.085Z,84.38
2023-03-21T08:00:11.022Z,84.38
2023-03-21T08:01:12.530Z,84.38
2023-03-21T08:02:12.788Z,90
2023-03-21T08:03:15.247Z,90
2023-03-21T08:04:13.201Z,90
2023-03-21T08:05:14.515Z,95.63
2023-03-21T08:06:15.029Z,95.63
2023-03-21T08:07:14.666Z,95.63
2023-03-21T08:08:16.256Z,101.25
2023-03-21T08:09:15.650Z,101.25
2023-03-21T08:10:16.354Z,106.88
2023-03-21T08:11:17.729Z,106.88
2023-03-21T08:12:18.361Z,112.5
2023-03-21T08:13:18.888Z,112.5
2023-03-21T08:14:19.437Z,112.5
2023-03-21T08:15:19.841Z,118.13
2023-03-21T08:16:20.088Z,118.13
2023-03-21T08:17:21.005Z,118.13
2023-03-21T08:18:21.087Z,118.13
2023-03-21T08:19:22.343Z,123.75
2023-03-21T08:20:22.572Z,123.75
2023-03-21T08:21:24.223Z,118.13
2023-03-21T08:22:23.505Z,118.13
2023-03-21T08:23:24.814Z,118.13
2023-03-21T08:24:25.024Z,118.13
2023-03-21T08:25:25.089Z,123.75
2023-03-21T08:26:26.644Z,118.13
2023-03-21T08:27:26.398Z,118.13
2023-03-21T08:28:27.608Z,118.13
2023-03-21T08:29:28.101Z,112.5
2023-03-21T08:30:28.320Z,112.5
2023-03-21T08:31:29.350Z,112.5
2023-03-21T08:32:29.591Z,112.5
2023-03-21T08:33:29.705Z,112.5
2023-03-21T08:34:30.373Z,112.5
2023-03-21T08:35:30.760Z,112.5
2023-03-21T08:36:31.512Z,112.5
2023-03-21T08:37:31.175Z,112.5
2023-03-21T08:38:32.117Z,106.88
2023-03-21T08:39:33.127Z,106.88
2023-03-21T08:40:33.712Z,106.88
2023-03-21T08:41:33.958Z,106.88
2023-03-21T08:42:34.260Z,106.88
2023-03-21T08:43:34.462Z,106.88
2023-03-21T08:44:34.990Z,112.5
2023-03-21T08:45:34.235Z,112.5
2023-03-21T08:46:35.953Z,112.5
2023-03-21T08:47:36.219Z,112.5
2023-03-21T08:48:36.706Z,112.5
2023-03-21T08:49:36.778Z,118.13
2023-03-21T08:50:37.721Z,118.13
2023-03-21T08:51:38.650Z,118.13
2023-03-21T08:52:38.876Z,118.13
2023-03-21T08:53:39.393Z,118.13
2023-03-21T08:54:39.630Z,118.13
2023-03-21T08:55:39.903Z,118.13
2023-03-21T08:56:42.839Z,118.13
2023-03-21T08:57:41.213Z,123.75
2023-03-21T08:58:41.269Z,129.38
2023-03-21T08:59:42.529Z,135
2023-03-21T09:00:43.507Z,140.63
2023-03-21T09:01:44.433Z,146.25
2023-03-21T09:02:45.486Z,151.88
2023-03-21T09:03:45.735Z,157.5
2023-03-21T09:04:46.183Z,157.5
2023-03-21T09:05:47.548Z,163.13
2023-03-21T09:06:47.210Z,163.13
2023-03-21T09:07:48.467Z,163.13
2023-03-21T09:08:49.005Z,163.13
2023-03-21T09:10:02.960Z,168.75
2023-03-21T09:10:49.377Z,163.13
2023-03-21T09:11:52.489Z,163.13
2023-03-21T09:12:51.125Z,163.13
2023-03-21T09:13:51.345Z,163.13
2023-03-21T09:14:51.918Z,157.5
2023-03-21T09:15:52.191Z,157.5
2023-03-21T09:16:52.437Z,157.5
2023-03-21T09:17:53.359Z,163.13
2023-03-21T09:18:53.602Z,163.13
2023-03-21T09:19:53.830Z,163.13
2023-03-21T09:20:54.548Z,163.13
2023-03-21T09:21:54.531Z,163.13
2023-03-21T09:22:58.476Z,163.13
2023-03-21T09:23:56.065Z,157.5
2023-03-21T09:24:56.603Z,151.88
2023-03-21T09:25:57.629Z,146.25
2023-03-21T09:26:56.914Z,140.63
2023-03-21T09:27:57.827Z,140.63
2023-03-21T09:28:58.054Z,135
2023-03-21T09:29:58.580Z,135
2023-03-21T09:30:58.717Z,135
2023-03-21T09:31:59.310Z,135
2023-03-21T09:32:59.576Z,129.38
2023-03-21T09:34:00.097Z,129.38
2023-03-21T09:35:00.378Z,129.38
2023-03-21T09:36:03.101Z,129.38
2023-03-21T09:37:01.340Z,129.38
2023-03-21T09:38:00.981Z,123.75
2023-03-21T09:39:02.360Z,129.38
2023-03-21T09:40:02.344Z,129.38
2023-03-21T09:41:03.979Z,129.38
2023-03-21T09:42:04.321Z,129.38
2023-03-21T09:43:04.583Z,129.38
2023-03-21T09:44:04.816Z,135
2023-03-21T09:45:05.024Z,135
2023-03-21T09:46:05.107Z,135
2023-03-21T09:47:06.761Z,140.63
2023-03-21T09:48:07.365Z,140.63
2023-03-21T09:49:13.578Z,140.63
2023-03-21T09:50:26.190Z,140.63
2023-03-21T09:51:08.218Z,140.63
2023-03-21T09:52:09.003Z,140.63
2023-03-21T09:53:10.244Z,140.63
2023-03-21T09:54:12.672Z,140.63
2023-03-21T09:55:10.429Z,140.63
2023-03-21T09:56:11.157Z,140.63
2023-03-21T09:57:11.445Z,140.63
2023-03-21T09:58:11.774Z,135
2023-03-21T09:59:12.034Z,135
2023-03-21T10:00:12.427Z,140.63
2023-03-21T10:01:13.589Z,140.63
2023-03-21T10:02:14.000Z,140.63
2023-03-21T10:03:14.546Z,140.63
2023-03-21T10:04:15.028Z,140.63
2023-03-21T10:05:15.072Z,146.25
2023-03-21T10:06:15.501Z,146.25
2023-03-21T10:07:16.753Z,151.88
2023-03-21T10:08:18.377Z,151.88
2023-03-21T10:09:18.235Z,157.5
2023-03-21T10:10:18.764Z,157.5
2023-03-21T10:11:19.133Z,157.5
2023-03-21T10:12:19.958Z,157.5
2023-03-21T10:13:20.280Z,157.5
2023-03-21T10:14:20.504Z,157.5
2023-03-21T10:15:21.012Z,163.13
2023-03-21T10:16:22.277Z,168.75
2023-03-21T10:17:21.942Z,157.5
2023-03-21T10:18:23.155Z,157.5
2023-03-21T10:19:23.484Z,157.5
2023-03-21T10:20:23.803Z,151.88
2023-03-21T10:22:05.956Z,146.25
2023-03-21T10:22:23.487Z,146.25
2023-03-21T10:23:23.619Z,146.25
2023-03-21T10:24:24.050Z,146.25
2023-03-21T10:25:23.831Z,146.25
2023-03-21T10:26:29.334Z,140.63
2023-03-21T10:27:25.653Z,140.63
2023-03-21T10:28:26.366Z,140.63
2023-03-21T10:29:27.972Z,140.63
2023-03-21T10:30:28.283Z,140.63
2023-03-21T10:31:28.724Z,146.25
2023-03-21T10:32:29.008Z,146.25
2023-03-21T10:33:29.909Z,146.25
2023-03-21T10:34:29.893Z,146.25
2023-03-21T10:35:31.635Z,151.88
2023-03-21T10:36:32.165Z,151.88
2023-03-21T10:37:33.165Z,157.5
2023-03-21T10:38:33.096Z,157.5
2023-03-21T10:39:34.361Z,163.13
2023-03-21T10:40:35.385Z,168.75
2023-03-21T10:41:34.994Z,180
2023-03-21T10:42:35.520Z,180
2023-03-21T10:43:35.779Z,185.63
2023-03-21T10:44:36.024Z,191.25
2023-03-21T10:45:36.659Z,191.25
2023-03-21T10:46:41.676Z,191.25
2023-03-21T10:47:38.543Z,185.63
2023-03-21T10:48:38.758Z,180
2023-03-21T10:50:06.696Z,174.38
2023-03-21T10:50:38.976Z,168.75
2023-03-21T10:51:39.699Z,163.13
2023-03-21T10:52:40.618Z,163.13
2023-03-21T10:53:42.076Z,157.5
2023-03-21T10:54:41.776Z,151.88
2023-03-21T10:55:43.171Z,146.25
2023-03-21T10:56:43.862Z,146.25
2023-03-21T10:57:44.482Z,140.63
2023-03-21T10:58:45.091Z,140.63
2023-03-21T10:59:45.011Z,140.63
2023-03-21T11:00:46.007Z,140.63
2023-03-21T11:01:48.126Z,146.25
2023-03-21T11:02:47.727Z,146.25
2023-03-21T11:03:48.461Z,151.88
2023-03-21T11:04:48.687Z,157.5
2023-03-21T11:05:49.868Z,157.5
2023-03-21T11:06:49.599Z,157.5
2023-03-21T11:07:50.823Z,174.38
2023-03-21T11:08:51.400Z,168.75
2023-03-21T11:09:53.557Z,191.25
2023-03-21T11:10:51.879Z,202.5
2023-03-21T11:11:52.166Z,247.5
2023-03-21T11:12:52.451Z,225
2023-03-21T11:13:52.794Z,241.88
2023-03-21T11:14:52.724Z,241.88
2023-03-21T11:15:54.563Z,264.38
2023-03-21T11:16:57.291Z,230.63
2023-03-21T11:17:55.274Z,208.13
2023-03-21T11:18:55.511Z,202.5
2023-03-21T11:19:55.977Z,202.5
2023-03-21T11:20:56.497Z,196.88
2023-03-21T11:21:56.135Z,196.88
2023-03-21T11:22:57.100Z,208.13
2023-03-21T11:23:58.337Z,264.38
2023-03-21T11:24:59.002Z,236.25
2023-03-21T11:26:00.230Z,247.5
2023-03-21T11:27:00.329Z,191.25
2023-03-21T11:28:01.580Z,174.38
2023-03-21T11:29:02.189Z,163.13
2023-03-21T11:30:02.411Z,157.5
2023-03-21T11:31:03.070Z,151.88
2023-03-21T11:32:03.039Z,146.25
2023-03-21T11:33:04.305Z,140.63
2023-03-21T11:34:04.833Z,140.63
2023-03-21T11:35:05.052Z,140.63
2023-03-21T11:36:05.827Z,135
2023-03-21T11:37:06.505Z,140.63
2023-03-21T11:38:06.490Z,135
2023-03-21T11:39:07.442Z,135
2023-03-21T11:40:07.685Z,129.38
2023-03-21T11:41:08.699Z,129.38
2023-03-21T11:42:08.934Z,129.38
2023-03-21T11:43:09.176Z,129.38
2023-03-21T11:44:09.998Z,129.38
2023-03-21T11:45:10.235Z,129.38
2023-03-21T11:46:11.319Z,135
2023-03-21T11:47:12.002Z,140.63
2023-03-21T11:48:12.858Z,140.63
2023-03-21T11:49:13.408Z,146.25
2023-03-21T11:50:21.652Z,151.88
2023-03-21T11:51:14.281Z,157.5
2023-03-21T11:52:14.487Z,163.13
2023-03-21T11:53:14.694Z,180
2023-03-21T11:54:14.930Z,185.63
2023-03-21T11:55:14.920Z,191.25
2023-03-21T11:56:15.839Z,213.75
2023-03-21T11:57:16.943Z,208.13
2023-03-21T11:58:30.909Z,202.5
2023-03-21T11:59:18.746Z,208.13
2023-03-21T12:00:19.316Z,208.13
2023-03-21T12:01:20.202Z,208.13
2023-03-21T12:02:20.556Z,208.13
2023-03-21T12:03:21.248Z,213.75
2023-03-21T12:04:21.960Z,213.75
2023-03-21T12:05:21.929Z,196.88
2023-03-21T12:06:22.951Z,196.88
2023-03-21T12:07:22.704Z,196.88
2023-03-21T12:08:24.305Z,196.88
2023-03-21T12:09:24.256Z,196.88
2023-03-21T12:10:26.007Z,196.88
2023-03-21T12:11:26.518Z,191.25
2023-03-21T12:12:39.646Z,196.88
2023-03-21T12:13:27.278Z,185.63
2023-03-21T12:14:27.472Z,180
2023-03-21T12:15:27.716Z,174.38
2023-03-21T12:16:29.163Z,174.38
2023-03-21T12:17:29.817Z,163.13
2023-03-21T12:18:29.760Z,157.5
2023-03-21T12:19:31.005Z,151.88
2023-03-21T12:20:31.758Z,146.25
2023-03-21T12:21:31.698Z,146.25
2023-03-21T12:22:32.209Z,140.63
2023-03-21T12:23:33.081Z,135
2023-03-21T12:24:33.033Z,135
2023-03-21T12:25:34.626Z,129.38
2023-03-21T12:26:34.875Z,129.38
2023-03-21T12:27:36.302Z,135
2023-03-21T12:28:48.016Z,135
2023-03-21T12:29:37.737Z,140.63
2023-03-21T12:30:37.948Z,140.63
2023-03-21T12:31:39.275Z,140.63
2023-03-21T12:32:40.862Z,140.63
2023-03-21T12:33:40.236Z,140.63
2023-03-21T12:34:41.476Z,140.63
2023-03-21T12:35:42.137Z,146.25
2023-03-21T12:36:42.784Z,146.25
2023-03-21T12:37:43.853Z,157.5
2023-03-21T12:38:43.796Z,157.5
2023-03-21T12:39:45.037Z,157.5
2023-03-21T12:40:45.394Z,157.5
2023-03-21T12:41:46.054Z,157.5
2023-03-21T12:42:47.139Z,163.13
2023-03-21T12:43:48.085Z,163.13
2023-03-21T12:44:48.904Z,168.75
2023-03-21T12:46:03.714Z,168.75
2023-03-21T12:46:49.805Z,185.63
2023-03-21T12:47:49.957Z,174.38
2023-03-21T12:48:50.927Z,174.38
2023-03-21T12:49:53.986Z,180
2023-03-21T12:50:52.652Z,180
2023-03-21T12:51:52.812Z,180
2023-03-21T12:52:52.465Z,180
2023-03-21T12:53:54.018Z,180
2023-03-21T12:54:54.252Z,174.38
2023-03-21T12:55:55.254Z,174.38
2023-03-21T12:56:55.788Z,174.38
2023-03-21T12:58:08.511Z,202.5
2023-03-21T12:58:58.992Z,180
2023-03-21T12:59:57.234Z,180
2023-03-21T13:00:58.422Z,191.25
2023-03-21T13:01:57.995Z,196.88
2023-03-21T13:02:58.235Z,191.25
2023-03-21T13:03:58.381Z,208.13
2023-03-21T13:05:01.170Z,410.63
2023-03-21T13:05:59.788Z,230.63
2023-03-21T13:07:00.165Z,236.25
2023-03-21T13:08:00.969Z,236.25
2023-03-21T13:09:02.193Z,230.63
2023-03-21T13:10:01.975Z,275.63
2023-03-21T13:11:06.603Z,230.63
2023-03-21T13:12:03.359Z,236.25
2023-03-21T13:13:04.367Z,286.88
2023-03-21T13:14:05.294Z,219.38
2023-03-21T13:15:12.397Z,213.75
2023-03-21T13:16:07.112Z,208.13
2023-03-21T13:17:09.356Z,202.5
2023-03-21T13:18:08.201Z,208.13
2023-03-21T13:19:08.714Z,303.75
2023-03-21T13:20:08.649Z,208.13
2023-03-21T13:21:09.636Z,208.13
2023-03-21T13:22:10.026Z,202.5
2023-03-21T13:23:12.112Z,225
2023-03-21T13:24:12.826Z,208.13
2023-03-21T13:25:12.776Z,208.13
2023-03-21T13:26:14.096Z,202.5
2023-03-21T13:27:14.789Z,196.88
2023-03-21T13:28:16.504Z,196.88
2023-03-21T13:29:17.029Z,196.88
2023-03-21T13:30:18.812Z,236.25
2023-03-21T13:31:17.983Z,208.13
2023-03-21T13:32:18.665Z,202.5
2023-03-21T13:33:18.833Z,208.13
2023-03-21T13:34:20.342Z,236.25
2023-03-21T13:35:20.866Z,202.5
2023-03-21T13:36:21.793Z,208.13
2023-03-21T13:37:21.722Z,264.38
2023-03-21T13:38:22.588Z,196.88
2023-03-21T13:39:22.810Z,196.88
2023-03-21T13:40:23.057Z,196.88
2023-03-21T13:41:23.473Z,174.38
2023-03-21T13:42:23.408Z,174.38